CDT,Max TemperatureF,Mean TemperatureF,Min TemperatureF,Max Dew PointF,MeanDew PointF,Min DewpointF,Max Humidity, Mean Humidity, Min Humidity, Max Sea Level PressureIn, Mean Sea Level PressureIn, Min Sea Level PressureIn, Max VisibilityMiles, Mean VisibilityMiles, Min VisibilityMiles, Max Wind SpeedMPH, Mean Wind SpeedMPH, Max Gust SpeedMPH,PrecipitationIn, CloudCover, Events, WindDirDegrees
2012-10-1,63,59,55,62,59,55,100,97,93,29.79,29.64,29.54,10,4,2,15,6,22,0.40,7,Rain-Thunderstorm,314
2012-10-2,76,63,49,58,54,48,100,73,46,30.01,29.88,29.76,10,4,0,7,1,12,0.00,1,Fog,341
2012-10-3,81,66,51,64,56,50,100,73,45,30.14,30.05,29.99,10,6,0,12,4,15,0.05,1,Fog-Rain-Thunderstorm,146
2012-10-4,84,70,55,68,60,55,100,72,43,30.26,30.18,30.13,10,4,0,8,1,14,0.00,0,Fog,156
2012-10-5,85,70,55,66,60,54,100,74,48,30.19,30.11,30.01,10,6,0,10,2,16,0.00,0,Fog,184
2012-10-6,69,60,50,64,53,46,100,89,77,30.19,30.10,30.01,10,8,0,17,10,23,0.00,6,Fog,5
2012-10-7,63,56,49,46,44,41,86,69,51,30.27,30.20,30.16,10,10,10,16,9,22,0.00,7,,23
2012-10-8,62,50,38,47,45,37,100,80,60,30.27,30.21,30.16,10,9,0,15,5,20,T,5,Fog-Rain,15
2012-10-9,74,55,36,57,44,36,100,73,46,30.19,30.13,30.02,10,5,0,9,3,12,0.00,1,Fog,162
2012-10-10,80,69,57,64,59,55,93,72,51,30.23,30.17,30.09,10,10,10,13,5,15,T,5,,19
2012-10-11,85,69,53,66,61,53,100,76,51,30.27,30.21,30.18,10,8,2,12,4,14,0.00,1,,116
2012-10-12,86,71,55,66,60,55,100,74,48,30.30,30.22,30.18,10,4,0,8,3,12,0.00,0,Fog-Rain,136
2012-10-13,85,70,55,67,60,54,100,76,51,30.25,30.18,30.06,10,5,0,18,8,22,0.00,0,Fog,157
2012-10-14,83,72,60,73,69,60,100,83,65,30.15,30.05,29.98,10,8,2,18,6,26,0.21,4,Rain-Thunderstorm,186
2012-10-15,80,64,48,63,56,46,100,70,39,30.11,30.03,29.99,10,6,0,10,3,14,0.00,1,Fog,338
2012-10-16,79,62,44,57,48,43,100,68,36,30.04,29.97,29.87,10,5,0,14,4,17,0.00,0,Fog,156
2012-10-17,84,70,56,72,62,52,86,70,54,29.86,29.76,29.65,10,10,5,18,10,32,0.05,3,Rain,178
2012-10-18,78,59,40,72,51,34,100,60,20,29.95,29.86,29.66,10,10,9,16,5,23,0.00,2,Rain-Thunderstorm,335
2012-10-19,76,57,37,43,36,30,100,61,21,29.95,29.90,29.59,10,10,6,18,6,28,0.00,1,Rain,263
2012-10-20,83,59,34,48,41,33,100,62,23,30.04,29.97,29.93,10,9,2,8,1,,0.00,0,,170
2012-10-21,84,67,49,54,51,46,100,65,30,30.12,30.06,29.99,10,10,10,7,6,8,0.00,3,,164
2012-10-22,85,66,47,54,52,46,100,66,32,30.18,30.10,30.05,10,10,7,13,5,16,0.00,0,,144
2012-10-23,83,66,49,64,58,49,100,73,46,30.14,30.07,30.02,10,7,0,12,4,21,0.00,0,Fog,160
2012-10-24,86,70,54,64,60,54,100,72,44,30.13,30.07,30.00,10,6,0,14,5,18,0.00,2,Fog-Rain,145
2012-10-25,85,70,55,66,61,57,100,76,51,30.05,29.98,29.94,10,8,0,14,4,18,0.00,1,Fog,153
2012-10-26,65,56,47,62,51,42,100,86,72,30.20,30.09,29.97,10,10,3,20,10,25,T,6,Rain,5
2012-10-27,61,52,42,42,39,35,80,63,46,30.19,30.13,30.07,10,10,8,21,10,28,0.00,4,Rain,359
2012-10-28,62,49,36,38,35,31,92,61,30,30.23,30.17,30.13,10,10,10,16,7,23,0.00,0,,330
2012-10-29,62,47,31,36,31,22,92,57,22,30.30,30.22,30.16,10,10,10,18,7,25,0.00,0,,346
2012-10-30,70,48,26,37,33,25,100,63,26,30.15,30.08,30.00,10,10,10,13,2,18,0.00,0,,267
2012-10-31,81,58,35,55,45,33,100,70,40,30.05,30.01,29.94,10,9,2,14,4,20,0.00,1,,286